createdAt,value
2018-01-02T00:01:23.960Z,76.50
2018-01-02T00:03:52.016Z,77.10
2018-01-02T00:06:20.076Z,76.20
2018-01-02T00:08:50.018Z,76.90
2018-01-02T00:11:18.064Z,76.90
2018-01-02T00:13:46.109Z,76.50
2018-01-02T00:16:14.142Z,77.10
2018-01-02T00:18:42.230Z,78.20
2018-01-02T00:21:10.295Z,79.30
2018-01-02T00:23:38.354Z,80.20
2018-01-02T00:26:07.176Z,81.70
2018-01-02T00:28:35.249Z,81.60
2018-01-02T00:31:04.052Z,83.70
2018-01-02T00:33:32.864Z,84.90
2018-01-02T00:36:00.932Z,84.90
2018-01-02T00:38:29.717Z,84.50
2018-01-02T00:40:57.769Z,85.10
2018-01-02T00:43:25.824Z,85.30
2018-01-02T00:45:53.860Z,83.40
2018-01-02T00:48:21.920Z,84.90
2018-01-02T00:50:49.965Z,85.00
2018-01-02T00:53:18.013Z,85.50
2018-01-02T00:55:46.058Z,84.50
2018-01-02T00:58:14.120Z,85.20
2018-01-02T01:00:42.148Z,84.60
2018-01-02T01:03:10.205Z,84.10
2018-01-02T01:05:38.252Z,83.20
2018-01-02T01:08:07.049Z,83.00
2018-01-02T01:10:35.102Z,82.90
2018-01-02T01:13:03.124Z,83.60
2018-01-02T01:15:31.111Z,83.60
2018-01-02T01:17:59.122Z,82.80
2018-01-02T01:20:27.124Z,82.10
2018-01-02T01:22:55.140Z,81.60
2018-01-02T01:25:23.891Z,79.20
2018-01-02T01:27:51.896Z,79.20
2018-01-02T01:30:19.895Z,79.20
2018-01-02T01:32:47.875Z,79.20
2018-01-02T01:35:16.656Z,77.10
2018-01-02T01:37:44.656Z,77.20
2018-01-02T01:40:12.644Z,77.60
2018-01-02T01:42:41.412Z,76.40
2018-01-02T01:45:09.421Z,76.30
2018-01-02T01:47:37.419Z,76.60
2018-01-02T01:50:06.183Z,79.00
2018-01-02T01:52:34.200Z,78.90
2018-01-02T01:55:02.254Z,79.10
2018-01-02T01:57:30.215Z,79.10
2018-01-02T01:59:58.212Z,80.20
2018-01-02T02:02:26.203Z,81.40
2018-01-02T02:04:54.274Z,79.90
2018-01-02T02:07:22.996Z,79.00
2018-01-02T02:09:50.992Z,79.00
2018-01-02T02:12:19.769Z,77.60
2018-01-02T02:14:47.760Z,77.50
2018-01-02T02:17:15.760Z,75.80
2018-01-02T02:19:44.519Z,74.30
2018-01-02T02:22:12.526Z,74.20
2018-01-02T02:24:40.516Z,74.50
2018-01-02T02:27:08.520Z,75.70
2018-01-02T02:29:37.292Z,77.30
2018-01-02T02:32:05.271Z,77.20
2018-01-02T02:34:33.280Z,78.90
2018-01-02T02:37:02.043Z,78.70
2018-01-02T02:39:30.052Z,79.40
2018-01-02T02:41:58.836Z,79.40
2018-01-02T02:44:26.843Z,79.30
2018-01-02T02:46:54.829Z,79.50
2018-01-02T02:49:23.684Z,80.50
2018-01-02T02:51:51.683Z,80.10
2018-01-02T02:54:19.667Z,79.80
2018-01-02T02:56:47.676Z,81.00
2018-01-02T02:59:16.452Z,76.30
2018-01-02T03:01:44.436Z,76.20
2018-01-02T03:04:12.444Z,77.10
2018-01-02T03:06:41.207Z,78.50
2018-01-02T03:09:09.204Z,78.50
2018-01-02T03:11:37.964Z,78.40
2018-01-02T03:14:05.972Z,78.50
2018-01-02T03:16:33.965Z,78.80
2018-01-02T03:19:01.960Z,80.60
2018-01-02T03:21:29.971Z,80.30
2018-01-02T03:23:58.715Z,80.90
2018-01-02T03:26:26.728Z,80.80
2018-01-02T03:28:54.716Z,81.90
2018-01-02T03:31:23.476Z,80.70
2018-01-02T03:33:51.463Z,80.50
2018-01-02T03:36:19.472Z,80.90
2018-01-02T03:38:47.459Z,82.10
2018-01-02T03:41:16.235Z,80.30
2018-01-02T03:43:44.241Z,79.60
2018-01-02T03:46:12.711Z,78.30
2018-01-02T03:48:40.696Z,79.30
2018-01-02T03:51:08.711Z,80.70
2018-01-02T03:53:36.709Z,80.10
2018-01-02T03:56:04.714Z,80.80
2018-01-02T03:58:32.724Z,81.90
2018-01-02T04:01:00.715Z,80.90
2018-01-02T04:03:28.731Z,81.40
2018-01-02T04:05:57.496Z,81.10
2018-01-02T04:08:25.476Z,81.10
2018-01-02T04:10:53.480Z,81.90
2018-01-02T04:13:21.467Z,82.40
2018-01-02T04:15:50.224Z,83.20
2018-01-02T04:18:18.983Z,82.30
2018-01-02T04:20:47.762Z,82.70
2018-01-02T04:23:15.740Z,82.70
2018-01-02T04:25:43.755Z,82.50
2018-01-02T04:28:11.764Z,82.40
2018-01-02T04:30:39.743Z,82.50
2018-01-02T04:33:07.746Z,82.20
2018-01-02T04:35:35.768Z,80.00
2018-01-02T04:38:04.533Z,80.90
2018-01-02T04:40:32.532Z,81.00
2018-01-02T04:43:01.333Z,79.90
2018-01-02T04:45:29.327Z,82.20
2018-01-02T04:47:57.335Z,81.70
2018-01-02T04:50:25.404Z,82.10
2018-01-02T04:52:54.160Z,84.10
2018-01-02T04:55:22.164Z,83.90
2018-01-02T04:57:50.167Z,82.80
2018-01-02T05:00:19.924Z,84.00
2018-01-02T05:02:47.920Z,83.20
2018-01-02T05:05:15.924Z,82.80
2018-01-02T05:07:43.914Z,82.40
2018-01-02T05:10:11.916Z,83.50
2018-01-02T05:12:40.684Z,83.20
2018-01-02T05:15:08.663Z,82.50
2018-01-02T05:17:36.659Z,82.60
2018-01-02T05:20:04.663Z,80.40
2018-01-02T05:22:33.411Z,82.00
2018-01-02T05:25:01.412Z,81.80
2018-01-02T05:27:29.435Z,80.60
2018-01-02T05:29:58.192Z,81.20
2018-01-02T05:32:26.199Z,81.10
2018-01-02T05:34:54.194Z,81.20
2018-01-02T05:37:22.181Z,81.00
2018-01-02T05:39:50.939Z,81.60
2018-01-02T05:42:18.936Z,81.50
2018-01-02T05:44:46.919Z,82.20
2018-01-02T05:47:14.923Z,80.80
2018-01-02T05:49:43.684Z,80.20
2018-01-02T05:52:11.759Z,79.40
2018-01-02T05:54:39.768Z,77.50
2018-01-02T05:57:07.771Z,78.10
2018-01-02T05:59:35.755Z,76.00
2018-01-02T06:02:04.533Z,76.40
2018-01-02T06:04:32.539Z,76.20
2018-01-02T06:07:01.287Z,76.00
2018-01-02T06:09:29.305Z,75.90
2018-01-02T06:11:57.300Z,76.20
2018-01-02T06:14:25.291Z,75.10
2018-01-02T06:16:54.051Z,75.70
2018-01-02T06:19:22.052Z,75.60
2018-01-02T06:21:50.823Z,73.70
2018-01-02T06:24:18.828Z,73.60
2018-01-02T06:26:46.827Z,74.10
2018-01-02T06:29:14.814Z,74.00
2018-01-02T06:31:43.584Z,74.60
2018-01-02T06:34:11.575Z,74.50
2018-01-02T06:36:39.576Z,74.10
2018-01-02T06:39:07.555Z,74.50
2018-01-02T06:41:35.557Z,74.50
2018-01-02T06:44:04.316Z,74.30
2018-01-02T06:46:32.316Z,74.10
2018-01-02T06:49:00.320Z,74.60
2018-01-02T06:51:29.079Z,75.10
2018-01-02T06:53:57.092Z,74.90
2018-01-02T06:56:25.087Z,74.50
2018-01-02T06:58:53.856Z,75.10
2018-01-02T07:01:21.843Z,75.00
2018-01-02T07:03:49.852Z,75.60
2018-01-02T07:06:18.602Z,76.00
2018-01-02T07:08:46.611Z,75.90
2018-01-02T07:11:15.005Z,75.60
2018-01-02T07:13:43.891Z,75.80
2018-01-02T07:16:11.960Z,75.80
2018-01-02T07:18:39.973Z,75.70
2018-01-02T07:21:07.956Z,77.10
2018-01-02T07:23:35.955Z,76.40
2018-01-02T07:26:04.728Z,77.60
2018-01-02T07:28:32.716Z,77.50
2018-01-02T07:31:00.724Z,77.80
2018-01-02T07:33:29.483Z,77.80
2018-01-02T07:35:57.476Z,77.80
2018-01-02T07:38:25.471Z,77.80
2018-01-02T07:40:53.479Z,79.10
2018-01-02T07:43:22.219Z,79.20
2018-01-02T07:45:50.224Z,79.20
2018-01-02T07:48:18.248Z,79.60
2018-01-02T07:50:47.003Z,79.10
2018-01-02T07:53:15.007Z,79.10
2018-01-02T07:55:43.014Z,79.30
2018-01-02T07:58:11.771Z,78.60
2018-01-02T08:00:39.774Z,78.50
2018-01-02T08:03:07.771Z,77.90
2018-01-02T08:05:36.526Z,78.50
2018-01-02T08:08:04.519Z,78.50
2018-01-02T08:10:32.532Z,78.00
2018-01-02T08:13:01.285Z,78.00
2018-01-02T08:15:29.356Z,78.00
2018-01-02T08:17:57.299Z,78.00
2018-01-02T08:20:26.052Z,77.30
2018-01-02T08:22:54.052Z,77.10
2018-01-02T08:25:22.052Z,77.30
2018-01-02T08:27:50.044Z,76.60
2018-01-02T08:30:18.811Z,77.50
2018-01-02T08:32:46.827Z,77.50
2018-01-02T08:35:14.803Z,76.00
2018-01-02T08:37:42.808Z,75.90
2018-01-02T08:40:10.819Z,74.40
2018-01-02T08:42:38.848Z,73.80
2018-01-02T08:45:06.817Z,74.80
2018-01-02T08:47:34.811Z,75.90
2018-01-02T08:50:02.800Z,75.40
2018-01-02T08:52:30.803Z,74.80
2018-01-02T08:54:58.816Z,75.30
2018-01-02T08:57:26.796Z,75.00
2018-01-02T08:59:54.797Z,75.20
2018-01-02T09:02:22.800Z,75.70
2018-01-02T09:04:50.784Z,75.40
2018-01-02T09:07:18.786Z,75.10
2018-01-02T09:09:46.775Z,76.40
2018-01-02T09:12:21.193Z,75.50
2018-01-02T09:14:49.194Z,75.40
2018-01-02T09:17:17.935Z,75.30
2018-01-02T09:19:45.937Z,75.40
2018-01-02T09:22:13.939Z,74.80
2018-01-02T09:24:41.929Z,76.10
2018-01-02T09:27:09.919Z,75.70
2018-01-02T09:29:38.687Z,75.50
2018-01-02T09:32:06.680Z,75.50
2018-01-02T09:34:34.680Z,76.30
2018-01-02T09:37:03.449Z,75.20
2018-01-02T09:39:31.435Z,75.10
2018-01-02T09:41:59.444Z,75.70
2018-01-02T09:44:28.232Z,75.60
2018-01-02T09:46:56.213Z,75.50
2018-01-02T09:49:24.211Z,75.30
2018-01-02T09:51:52.980Z,74.80
2018-01-02T09:54:20.967Z,74.70
2018-01-02T09:56:49.017Z,75.40
2018-01-02T09:59:17.017Z,74.10
2018-01-02T10:01:45.000Z,74.30
2018-01-02T10:04:13.016Z,74.90
2018-01-02T10:06:41.008Z,75.50
2018-01-02T10:09:09.759Z,74.50
2018-01-02T10:11:37.763Z,74.50
2018-01-02T10:14:05.774Z,74.10
2018-01-02T10:16:33.747Z,73.70
2018-01-02T10:19:01.751Z,74.10
2018-01-02T10:21:30.516Z,74.70
2018-01-02T10:23:58.503Z,74.70
2018-01-02T10:26:26.496Z,76.10
2018-01-02T10:28:55.263Z,75.90
2018-01-02T10:31:23.247Z,75.80
2018-01-02T10:33:51.247Z,76.50
2018-01-02T10:36:19.248Z,78.50
2018-01-02T10:38:48.005Z,78.70
2018-01-02T10:41:16.004Z,78.60
2018-01-02T10:43:45.523Z,80.30
2018-01-02T10:46:13.506Z,79.40
2018-01-02T10:48:41.504Z,80.10
2018-01-02T10:51:09.505Z,80.30
2018-01-02T10:53:38.255Z,81.80
2018-01-02T10:56:06.251Z,81.70
2018-01-02T10:58:34.259Z,79.50
2018-01-02T11:01:03.021Z,78.90
2018-01-02T11:03:31.040Z,78.80
2018-01-02T11:05:59.055Z,79.80
2018-01-02T11:08:27.039Z,80.80
2018-01-02T11:11:00.801Z,79.40
2018-01-02T11:13:34.475Z,80.10
2018-01-02T11:16:02.481Z,80.00
2018-01-02T11:18:30.488Z,78.60
2018-01-02T11:20:58.482Z,79.80
2018-01-02T11:23:26.475Z,79.00
2018-01-02T11:25:55.255Z,77.40
2018-01-02T11:28:23.257Z,77.30
2018-01-02T11:30:51.276Z,77.90
2018-01-02T11:33:19.268Z,78.60
2018-01-02T11:35:47.255Z,78.50
2018-01-02T11:38:15.251Z,78.50
2018-01-02T11:40:43.256Z,78.60
2018-01-02T11:43:11.236Z,78.60
2018-01-02T11:45:39.247Z,78.60
2018-01-02T11:48:08.007Z,78.70
2018-01-02T11:50:36.000Z,78.70
2018-01-02T11:53:03.999Z,78.80
2018-01-02T11:55:32.012Z,78.70
2018-01-02T11:58:00.020Z,78.70
2018-01-02T12:00:28.007Z,80.00
2018-01-02T12:02:56.011Z,78.90
2018-01-02T12:05:23.987Z,79.30
2018-01-02T12:07:51.991Z,77.90
2018-01-02T12:10:19.996Z,77.50
2018-01-02T12:12:47.976Z,77.80
2018-01-02T12:15:16.744Z,75.90
2018-01-02T12:17:44.743Z,75.80
2018-01-02T12:20:13.495Z,77.30
2018-01-02T12:22:41.491Z,77.10
2018-01-02T12:25:09.488Z,74.90
2018-01-02T12:27:37.475Z,75.60
2018-01-02T12:30:05.472Z,75.10
2018-01-02T12:32:33.463Z,74.40
2018-01-02T12:35:02.219Z,74.00
2018-01-02T12:37:30.223Z,74.00
2018-01-02T12:39:58.223Z,75.40
2018-01-02T12:42:26.212Z,73.30
2018-01-02T12:44:54.975Z,74.50
2018-01-02T12:47:22.972Z,74.50
2018-01-02T12:49:50.962Z,73.50
2018-01-02T12:52:18.979Z,74.10
2018-01-02T12:54:46.988Z,72.10
2018-01-02T12:57:14.982Z,71.60
2018-01-02T12:59:42.971Z,73.00
2018-01-02T13:02:10.983Z,72.20
2018-01-02T13:04:39.763Z,70.50
2018-01-02T13:07:07.739Z,70.40
2018-01-02T13:09:35.743Z,71.00
2018-01-02T13:12:03.731Z,70.00
2018-01-02T13:14:32.504Z,70.00
2018-01-02T13:17:00.506Z,69.80
2018-01-02T13:19:28.500Z,70.00
2018-01-02T13:21:57.255Z,69.90
2018-01-02T13:24:25.264Z,69.70
2018-01-02T13:26:53.248Z,68.70
2018-01-02T13:29:21.243Z,68.60
2018-01-02T13:31:50.016Z,70.00
2018-01-02T13:34:18.000Z,69.80
2018-01-02T13:36:46.008Z,70.00
2018-01-02T13:39:14.003Z,69.00
2018-01-02T13:41:42.752Z,70.00
2018-01-02T13:44:10.755Z,70.00
2018-01-02T13:46:38.748Z,69.10
2018-01-02T13:49:06.744Z,66.30
2018-01-02T13:51:35.531Z,65.00
2018-01-02T13:54:03.537Z,65.00
2018-01-02T13:56:32.293Z,63.90
2018-01-02T13:59:00.305Z,64.00
2018-01-02T14:01:28.308Z,63.90
2018-01-02T14:03:56.304Z,64.00
2018-01-02T14:06:24.297Z,63.60
2018-01-02T14:08:52.304Z,63.10
2018-01-02T14:11:20.283Z,62.70
2018-01-02T14:13:48.284Z,63.10
2018-01-02T14:16:16.295Z,63.90
2018-01-02T14:18:45.032Z,65.00
2018-01-02T14:21:13.110Z,64.90
2018-01-02T14:23:41.120Z,66.10
2018-01-02T14:26:09.860Z,66.30
2018-01-02T14:28:38.622Z,65.90
2018-01-02T14:31:06.676Z,65.70
2018-01-02T14:33:34.602Z,66.90
2018-01-02T14:36:02.611Z,66.30
2018-01-02T14:38:31.385Z,65.80
2018-01-02T14:40:59.367Z,65.80
2018-01-02T14:43:27.365Z,66.00
2018-01-02T14:45:56.127Z,64.80
2018-01-02T14:48:24.924Z,64.70
2018-01-02T14:50:52.928Z,64.70
2018-01-02T14:53:20.927Z,64.50
2018-01-02T14:55:49.684Z,64.70
2018-01-02T14:58:17.678Z,64.20
2018-01-02T15:00:45.679Z,64.60
2018-01-02T15:03:13.671Z,64.60
2018-01-02T15:05:41.668Z,62.80
2018-01-02T15:08:10.428Z,62.50
2018-01-02T15:10:38.420Z,62.50
2018-01-02T15:13:06.419Z,63.00
2018-01-02T15:15:34.415Z,62.90
2018-01-02T15:18:03.164Z,63.50
2018-01-02T15:20:31.172Z,63.40
2018-01-02T15:22:59.176Z,63.20
2018-01-02T15:25:27.155Z,63.30
2018-01-02T15:27:55.915Z,64.60
2018-01-02T15:30:23.911Z,63.90
2018-01-02T15:32:51.895Z,64.50
2018-01-02T15:35:19.900Z,64.10
2018-01-02T15:37:48.668Z,66.00
2018-01-02T15:40:16.655Z,65.30
2018-01-02T15:42:44.652Z,65.50
2018-01-02T15:45:12.661Z,65.80
2018-01-02T15:47:41.407Z,65.70
2018-01-02T15:50:09.413Z,65.60
2018-01-02T15:52:37.424Z,65.50
2018-01-02T15:55:06.175Z,66.20
2018-01-02T15:57:34.187Z,66.20
2018-01-02T16:00:02.184Z,66.20
2018-01-02T16:02:30.936Z,67.30
2018-01-02T16:04:58.948Z,66.90
2018-01-02T16:07:26.943Z,66.40
2018-01-02T16:09:55.691Z,66.70
2018-01-02T16:12:23.696Z,66.50
2018-01-02T16:14:51.694Z,66.90
2018-01-02T16:17:19.671Z,66.50
2018-01-02T16:19:47.668Z,67.00
2018-01-02T16:22:15.667Z,67.10
2018-01-02T16:24:43.656Z,67.40
2018-01-02T16:27:12.432Z,68.70
2018-01-02T16:29:40.435Z,68.60
2018-01-02T16:32:09.183Z,68.50
2018-01-02T16:34:37.191Z,68.40
2018-01-02T16:37:05.188Z,68.70
2018-01-02T16:39:33.191Z,68.80
2018-01-02T16:42:01.200Z,68.90
2018-01-02T16:44:29.195Z,68.70
2018-01-02T16:46:57.192Z,68.80
2018-01-02T16:49:26.027Z,68.70
2018-01-02T16:51:54.792Z,68.70
2018-01-02T16:54:22.783Z,68.60
2018-01-02T16:56:50.784Z,68.70
2018-01-02T16:59:18.775Z,68.70
2018-01-02T17:01:47.531Z,68.80
2018-01-02T17:04:15.535Z,68.60
2018-01-02T17:06:43.535Z,68.70
2018-01-02T17:09:11.524Z,68.60
2018-01-02T17:11:40.279Z,68.60
2018-01-02T17:14:08.292Z,68.50
2018-01-02T17:16:36.275Z,68.50
2018-01-02T17:19:04.284Z,68.60
2018-01-02T17:21:32.283Z,69.80
2018-01-02T17:24:00.280Z,69.90
2018-01-02T17:26:28.275Z,69.80
2018-01-02T17:28:56.298Z,70.20
2018-01-02T17:31:24.280Z,70.40
2018-01-02T17:33:53.058Z,69.90
2018-01-02T17:36:21.050Z,69.90
2018-01-02T17:38:49.034Z,70.60
2018-01-02T17:41:17.036Z,70.40
2018-01-02T17:43:45.799Z,70.40
2018-01-02T17:46:13.779Z,70.30
2018-01-02T17:48:41.783Z,70.10
2018-01-02T17:51:09.779Z,70.80
2018-01-02T17:53:38.544Z,70.70
2018-01-02T17:56:06.543Z,70.60
2018-01-02T17:58:34.543Z,71.40
2018-01-02T18:01:03.291Z,71.30
2018-01-02T18:03:31.292Z,71.30
2018-01-02T18:05:59.301Z,70.80
2018-01-02T18:08:27.302Z,71.10
2018-01-02T18:10:56.063Z,71.60
2018-01-02T18:13:24.068Z,71.50
2018-01-02T18:15:52.056Z,71.60
2018-01-02T18:18:20.837Z,72.30
2018-01-02T18:20:49.632Z,72.80
2018-01-02T18:23:17.616Z,72.40
2018-01-02T18:25:45.624Z,72.70
2018-01-02T18:28:14.427Z,73.50
2018-01-02T18:30:42.433Z,73.40
2018-01-02T18:33:10.448Z,73.40
2018-01-02T18:35:38.447Z,73.70
2018-01-02T18:38:06.444Z,73.30
2018-01-02T18:40:34.455Z,73.50
2018-01-02T18:43:02.467Z,73.20
2018-01-02T18:45:30.463Z,73.30
2018-01-02T18:47:58.460Z,72.90
2018-01-02T18:50:26.461Z,73.40
2018-01-02T18:52:54.466Z,73.30
2018-01-02T18:55:23.244Z,73.30
2018-01-02T18:57:51.236Z,73.20
2018-01-02T19:00:20.000Z,73.50
2018-01-02T19:02:47.994Z,73.50
2018-01-02T19:05:15.995Z,73.90
2018-01-02T19:07:44.752Z,74.80
2018-01-02T19:10:12.771Z,75.40
2018-01-02T19:12:40.763Z,75.20
2018-01-02T19:15:09.520Z,75.90
2018-01-02T19:17:38.291Z,75.40
2018-01-02T19:20:06.283Z,75.40
2018-01-02T19:22:34.286Z,75.80
2018-01-02T19:25:02.300Z,75.40
2018-01-02T19:27:30.293Z,74.60
2018-01-02T19:29:59.055Z,74.80
2018-01-02T19:32:27.060Z,74.70
2018-01-02T19:34:55.070Z,74.60
2018-01-02T19:37:23.816Z,74.60
2018-01-02T19:39:51.826Z,74.50
2018-01-02T19:42:19.825Z,74.70
2018-01-02T19:44:47.839Z,75.10
2018-01-02T19:47:15.832Z,74.90
2018-01-02T19:52:23.029Z,74.90
2018-01-02T19:54:51.808Z,75.10
2018-01-02T19:57:19.798Z,75.10
2018-01-02T19:59:47.804Z,74.70
2018-01-02T20:02:15.810Z,73.80
2018-01-02T20:04:43.795Z,74.10
2018-01-02T20:07:11.799Z,74.00
2018-01-02T20:09:39.812Z,73.50
2018-01-02T20:12:07.796Z,73.60
2018-01-02T20:14:36.679Z,73.20
2018-01-02T20:17:04.685Z,73.10
2018-01-02T20:19:32.664Z,72.70
2018-01-02T20:22:01.450Z,72.60
2018-01-02T20:24:29.449Z,72.50
2018-01-02T20:26:58.218Z,73.00
2018-01-02T20:29:26.235Z,73.00
2018-01-02T20:31:54.219Z,72.90
2018-01-02T20:34:25.743Z,72.80
2018-01-02T20:36:54.154Z,73.50
2018-01-02T20:39:23.112Z,71.80
2018-01-02T20:41:51.095Z,71.70
2018-01-02T20:44:22.654Z,71.60
2018-01-02T20:46:50.846Z,71.70
2018-01-02T20:49:18.830Z,70.80
2018-01-02T20:51:46.816Z,70.80
2018-01-02T20:54:14.816Z,70.50
2018-01-02T20:56:42.803Z,71.10
2018-01-02T20:59:10.816Z,71.10
2018-01-02T21:01:38.816Z,71.40
2018-01-02T21:04:07.564Z,71.40
2018-01-02T21:06:35.556Z,71.30
2018-01-02T21:09:03.559Z,71.90
2018-01-02T21:11:31.547Z,72.40
2018-01-02T21:13:59.562Z,72.30
2018-01-02T21:16:27.575Z,72.30
2018-01-02T21:18:55.552Z,72.60
2018-01-02T21:21:23.557Z,72.40
2018-01-02T21:23:51.555Z,73.00
2018-01-02T21:26:19.551Z,72.60
2018-01-02T21:28:47.540Z,71.30
2018-01-02T21:31:16.311Z,73.10
2018-01-02T21:33:44.288Z,73.10
2018-01-02T21:36:12.300Z,73.60
2018-01-02T21:38:41.436Z,73.70
2018-01-02T21:41:09.429Z,73.50
2018-01-02T21:43:37.435Z,73.40
2018-01-02T21:46:05.452Z,73.10
2018-01-02T21:48:33.431Z,72.90
2018-01-02T21:51:02.205Z,74.00
2018-01-02T21:53:30.205Z,73.20
2018-01-02T21:55:58.203Z,73.00
2018-01-02T21:58:26.979Z,73.30
2018-01-02T22:00:54.980Z,73.30
2018-01-02T22:03:22.963Z,72.60
2018-01-02T22:05:51.736Z,72.40
2018-01-02T22:08:19.739Z,71.80
2018-01-02T22:10:47.728Z,72.10
2018-01-02T22:13:15.731Z,72.30
2018-01-02T22:15:43.736Z,72.90
2018-01-02T22:18:11.773Z,71.70
2018-01-02T22:20:39.755Z,71.90
2018-01-02T22:23:08.532Z,71.20
2018-01-02T22:25:36.520Z,70.70
2018-01-02T22:28:04.512Z,70.90
2018-01-02T22:30:32.592Z,71.20
2018-01-02T22:33:00.587Z,70.60
2018-01-02T22:35:28.582Z,70.80
2018-01-02T22:37:57.367Z,70.00
2018-01-02T22:40:25.351Z,69.80
2018-01-02T22:42:53.351Z,69.60
2018-01-02T22:45:22.107Z,69.80
2018-01-02T22:47:50.095Z,69.80
2018-01-02T22:50:18.088Z,69.80
2018-01-02T22:52:46.087Z,70.50
2018-01-02T22:55:14.834Z,68.30
2018-01-02T22:57:42.840Z,68.20
2018-01-02T23:00:10.844Z,68.30
2018-01-02T23:02:38.832Z,68.30
2018-01-02T23:05:06.836Z,68.30
2018-01-02T23:07:35.601Z,68.40
2018-01-02T23:10:03.600Z,68.30
2018-01-02T23:12:31.603Z,68.30
2018-01-02T23:15:00.380Z,67.60
2018-01-02T23:17:28.388Z,66.90
2018-01-02T23:19:56.388Z,68.00
2018-01-02T23:22:24.391Z,68.30
2018-01-02T23:24:52.372Z,68.40
2018-01-02T23:27:20.411Z,68.40
2018-01-02T23:29:49.179Z,68.10
2018-01-02T23:32:17.167Z,68.00
2018-01-02T23:34:45.173Z,67.90
2018-01-02T23:37:13.931Z,67.40
2018-01-02T23:39:41.924Z,67.30
2018-01-02T23:42:09.928Z,66.50
2018-01-02T23:44:37.928Z,68.30
2018-01-02T23:47:06.673Z,67.50
2018-01-02T23:49:34.672Z,67.40
2018-01-02T23:52:02.671Z,68.40
2018-01-02T23:54:30.655Z,68.60
2018-01-02T23:56:58.655Z,68.60
2018-01-02T23:59:27.419Z,69.10
